createdAt,value
2022-12-11T00:00:39.571Z,12.57
2022-12-11T00:05:39.283Z,11.95
2022-12-11T00:10:37.945Z,11.52
2022-12-11T00:20:30.897Z,10.52
2022-12-11T00:25:27.482Z,12.10
2022-12-11T00:30:23.845Z,13.40
2022-12-11T00:35:20.234Z,11.48
2022-12-11T00:40:16.609Z,12.77
2022-12-11T00:45:13.167Z,13.20
2022-12-11T00:50:09.692Z,12.45
2022-12-11T00:55:06.431Z,13.02
2022-12-11T01:00:07.008Z,13.35
2022-12-11T01:05:04.015Z,13.25
2022-12-11T01:10:19.316Z,13.43
2022-12-11T01:15:15.811Z,13.98
2022-12-11T01:20:12.648Z,13.93
2022-12-11T01:25:10.276Z,13.50
2022-12-11T01:30:08.493Z,12.88
2022-12-11T01:35:07.272Z,15.27
2022-12-11T01:40:06.139Z,12.95
2022-12-11T01:45:26.642Z,13.15
2022-12-11T01:50:24.489Z,13.52
2022-12-11T01:55:21.657Z,15.20
2022-12-11T02:00:19.282Z,14.55
2022-12-11T02:05:15.961Z,14.30
2022-12-11T02:10:12.945Z,15.73
2022-12-11T02:15:31.020Z,17.00
2022-12-11T02:20:38.185Z,15.57
2022-12-11T02:25:59.035Z,16.77
2022-12-11T02:31:05.824Z,17.17
2022-12-11T02:36:04.844Z,16.10
2022-12-11T02:46:00.668Z,15.93
2022-12-11T02:50:59.528Z,16.25
2022-12-11T02:56:18.127Z,17.15
2022-12-11T03:01:14.825Z,15.80
2022-12-11T03:06:16.266Z,15.77
2022-12-11T03:11:13.541Z,15.90
2022-12-11T03:16:41.579Z,15.77
2022-12-11T03:21:47.858Z,12.53
2022-12-11T03:26:55.964Z,16.80
2022-12-11T03:31:58.330Z,16.83
2022-12-11T03:36:57.812Z,15.82
2022-12-11T03:41:56.128Z,16.58
2022-12-11T03:46:54.925Z,15.93
2022-12-11T03:51:54.981Z,16.67
2022-12-11T03:56:55.792Z,16.45
2022-12-11T04:01:52.245Z,17.70
2022-12-11T04:06:48.960Z,15.57
2022-12-11T04:11:45.359Z,17.88
2022-12-11T04:16:41.767Z,19.35
2022-12-11T04:21:56.606Z,18.52
2022-12-11T04:26:52.976Z,16.92
2022-12-11T04:31:50.628Z,17.33
2022-12-11T04:36:47.038Z,18.58
2022-12-11T04:41:43.570Z,17.38
2022-12-11T04:46:40.051Z,17.17
2022-12-11T04:51:36.523Z,16.40
2022-12-11T04:56:32.906Z,18.05
2022-12-11T05:01:29.390Z,18.73
2022-12-11T05:06:25.847Z,17.55
2022-12-11T05:11:22.342Z,19.48
2022-12-11T05:16:18.828Z,18.40
2022-12-11T05:21:16.213Z,17.17
2022-12-11T05:26:15.370Z,18.15
2022-12-11T05:31:15.000Z,17.10
2022-12-11T05:36:17.987Z,16.40
2022-12-11T05:41:18.362Z,16.38
2022-12-11T05:46:26.168Z,18.67
2022-12-11T05:51:23.180Z,15.88
2022-12-11T05:56:22.551Z,17.27
2022-12-11T06:01:38.547Z,20.25
2022-12-11T06:06:35.536Z,16.98
2022-12-11T06:11:33.516Z,18.10
2022-12-11T06:16:30.467Z,13.50
2022-12-11T06:21:29.979Z,17.98
2022-12-11T06:26:27.105Z,20.55
2022-12-11T06:31:23.617Z,20.63
2022-12-11T06:36:22.767Z,19.83
2022-12-11T06:41:19.367Z,20.60
2022-12-11T06:46:18.088Z,17.85
2022-12-11T06:51:17.274Z,17.45
2022-12-11T06:56:15.244Z,18.45
2022-12-11T07:01:24.061Z,17.93
2022-12-11T07:11:18.055Z,15.52
2022-12-11T07:16:16.317Z,14.60
2022-12-11T07:21:13.819Z,14.13
2022-12-11T07:26:14.015Z,14.77
2022-12-11T07:31:14.388Z,14.10
2022-12-11T07:36:13.096Z,15.13
2022-12-11T07:41:12.622Z,12.75
2022-12-11T07:46:15.009Z,14.93
2022-12-11T07:51:19.839Z,14.93
2022-12-11T07:56:17.725Z,14.73
2022-12-11T08:01:16.451Z,15.52
2022-12-11T08:06:13.340Z,15.00
2022-12-11T08:11:12.590Z,14.90
2022-12-11T08:16:13.030Z,12.13
2022-12-11T08:21:12.772Z,13.05
2022-12-11T08:26:12.835Z,11.20
2022-12-11T08:31:10.577Z,13.38
2022-12-11T08:36:09.780Z,12.30
2022-12-11T08:41:18.843Z,13.20
2022-12-11T08:46:15.772Z,12.27
2022-12-11T08:51:16.247Z,14.32
2022-12-11T08:56:14.834Z,13.88
2022-12-11T09:01:18.170Z,13.10
2022-12-11T09:06:17.453Z,15.75
2022-12-11T09:11:17.023Z,15.82
2022-12-11T09:16:16.408Z,17.63
2022-12-11T09:21:15.034Z,14.65
2022-12-11T09:26:14.501Z,16.00
2022-12-11T09:31:12.740Z,15.55
2022-12-11T09:36:09.914Z,11.30
2022-12-11T09:41:21.746Z,14.30
2022-12-11T09:46:22.480Z,12.23
2022-12-11T09:51:32.803Z,13.00
2022-12-11T09:57:00.275Z,10.15
2022-12-11T10:02:17.664Z,12.63
2022-12-11T10:07:28.671Z,11.70
2022-12-11T10:12:49.137Z,11.35
2022-12-11T10:18:02.928Z,12.43
2022-12-11T10:23:01.765Z,8.93
2022-12-11T10:27:59.983Z,13.00
2022-12-11T10:33:11.295Z,8.60
2022-12-11T10:38:20.123Z,13.10
2022-12-11T10:43:17.278Z,10.98
2022-12-11T10:48:13.974Z,10.32
2022-12-11T10:53:21.234Z,9.20
2022-12-11T10:58:26.944Z,9.02
2022-12-11T11:03:27.798Z,8.32
2022-12-11T11:08:24.253Z,9.43
2022-12-11T11:13:26.437Z,9.07
2022-12-11T11:18:27.992Z,8.55
2022-12-11T11:23:25.443Z,9.63
2022-12-11T11:28:36.255Z,9.05
2022-12-11T11:33:35.178Z,8.63
2022-12-11T11:43:47.860Z,9.55
2022-12-11T11:49:04.065Z,10.27
2022-12-11T11:54:02.910Z,10.15
2022-12-11T11:59:19.305Z,11.07
2022-12-11T12:04:16.043Z,9.23
2022-12-11T12:09:49.742Z,10.68
2022-12-11T12:15:01.156Z,10.38
2022-12-11T12:20:36.234Z,10.48
2022-12-11T12:25:42.224Z,9.55
2022-12-11T12:30:56.851Z,10.07
2022-12-11T12:36:11.301Z,11.55
2022-12-11T12:41:36.472Z,11.52
2022-12-11T12:46:54.604Z,10.13
2022-12-11T12:51:52.284Z,9.90
2022-12-11T12:56:49.327Z,9.00
2022-12-11T13:01:56.863Z,9.75
2022-12-11T13:06:53.626Z,11.38
2022-12-11T13:11:53.694Z,12.75
2022-12-11T13:16:52.887Z,11.23
2022-12-11T13:22:23.039Z,13.35
2022-12-11T13:27:37.516Z,12.52
2022-12-11T13:32:34.601Z,11.15
2022-12-11T13:37:41.323Z,10.27
2022-12-11T13:42:49.236Z,9.93
2022-12-11T13:47:46.735Z,9.75
2022-12-11T13:52:53.169Z,10.75
2022-12-11T13:57:49.595Z,12.45
2022-12-11T14:02:46.097Z,11.38
2022-12-11T14:08:02.829Z,12.60
2022-12-11T14:12:59.316Z,11.93
2022-12-11T14:17:57.371Z,11.65
2022-12-11T14:23:07.654Z,9.00
2022-12-11T14:28:04.223Z,11.43
2022-12-11T14:33:05.159Z,11.25
2022-12-11T14:38:09.000Z,11.50
2022-12-11T14:43:13.629Z,12.02
2022-12-11T14:48:19.627Z,11.30
2022-12-11T14:53:32.943Z,11.27
2022-12-11T14:58:30.276Z,10.75
2022-12-11T15:03:38.327Z,10.18
2022-12-11T15:08:36.875Z,9.30
2022-12-11T15:13:36.283Z,9.27
2022-12-11T15:18:40.444Z,10.10
2022-12-11T15:23:45.686Z,9.80
2022-12-11T15:28:42.058Z,10.13
2022-12-11T15:33:47.765Z,9.80
2022-12-11T15:38:44.144Z,10.68
2022-12-11T15:43:40.745Z,11.00
2022-12-11T15:48:37.101Z,13.05
2022-12-11T15:53:33.525Z,12.70
2022-12-11T15:58:30.112Z,12.73
2022-12-11T16:03:26.588Z,11.70
2022-12-11T16:08:24.178Z,12.07
2022-12-11T16:13:20.732Z,10.80
2022-12-11T16:18:20.217Z,11.20
2022-12-11T16:23:17.255Z,12.20
2022-12-11T16:28:16.218Z,11.68
2022-12-11T16:38:11.032Z,10.15
2022-12-11T16:43:08.298Z,10.63
2022-12-11T16:48:05.378Z,10.50
2022-12-11T16:53:02.719Z,10.80
2022-12-11T16:57:59.076Z,11.18
2022-12-11T17:02:55.762Z,11.90
2022-12-11T17:07:52.257Z,11.18
2022-12-11T17:12:48.726Z,10.35
2022-12-11T17:17:45.172Z,10.48
2022-12-11T17:22:41.661Z,9.15
2022-12-11T17:27:38.196Z,11.10
2022-12-11T17:32:34.566Z,9.75
2022-12-11T17:37:31.040Z,10.70
2022-12-11T17:42:27.443Z,9.70
2022-12-11T17:47:23.834Z,10.10
2022-12-11T17:52:20.253Z,10.82
2022-12-11T17:57:16.624Z,10.23
2022-12-11T18:02:13.410Z,10.20
2022-12-11T18:07:09.967Z,11.20
2022-12-11T18:12:08.072Z,10.85
2022-12-11T18:17:04.540Z,10.50
2022-12-11T18:22:00.979Z,10.32
2022-12-11T18:26:59.282Z,10.27
2022-12-11T18:31:55.702Z,10.07
2022-12-11T18:36:52.172Z,11.13
2022-12-11T18:42:03.458Z,10.88
2022-12-11T18:47:05.475Z,12.63
2022-12-11T18:52:01.857Z,11.57
2022-12-11T18:56:58.491Z,13.68
2022-12-11T19:01:54.953Z,12.75
2022-12-11T19:06:51.416Z,13.02
2022-12-11T19:11:47.831Z,13.32
2022-12-11T19:16:45.518Z,14.40
2022-12-11T19:21:42.940Z,13.43
2022-12-11T19:26:39.497Z,13.82
2022-12-11T19:31:36.017Z,15.02
2022-12-11T19:36:34.732Z,14.25
2022-12-11T19:41:31.412Z,14.80
2022-12-11T19:46:28.708Z,15.38
2022-12-11T19:51:33.886Z,14.55
2022-12-11T19:56:31.486Z,13.88
2022-12-11T20:01:31.163Z,15.07
2022-12-11T20:06:29.563Z,15.98
2022-12-11T20:11:26.272Z,14.00
2022-12-11T20:16:39.554Z,14.73
2022-12-11T20:21:39.921Z,14.52
2022-12-11T20:26:38.060Z,15.70
2022-12-11T20:31:35.948Z,15.67
2022-12-11T20:36:33.356Z,14.30
2022-12-11T20:41:29.811Z,14.95
2022-12-11T20:46:27.751Z,15.50
2022-12-11T20:51:26.359Z,17.08
2022-12-11T21:01:22.906Z,15.15
2022-12-11T21:06:25.663Z,15.73
2022-12-11T21:11:22.737Z,15.07
2022-12-11T21:16:20.347Z,14.60
2022-12-11T21:21:17.071Z,14.25
2022-12-11T21:26:13.872Z,15.57
2022-12-11T21:31:14.669Z,14.15
2022-12-11T21:36:13.250Z,14.88
2022-12-11T21:41:22.894Z,14.48
2022-12-11T21:46:22.230Z,13.82
2022-12-11T21:51:20.287Z,14.32
2022-12-11T21:56:21.188Z,11.20
2022-12-11T22:01:38.775Z,13.25
2022-12-11T22:06:35.747Z,14.43
2022-12-11T22:11:34.090Z,12.73
2022-12-11T22:16:30.757Z,9.82
2022-12-11T22:21:27.214Z,14.25
2022-12-11T22:26:26.739Z,12.80
2022-12-11T22:31:24.877Z,12.90
2022-12-11T22:36:22.899Z,9.77
2022-12-11T22:41:28.159Z,11.57
2022-12-11T22:46:27.851Z,10.35
2022-12-11T22:51:24.257Z,9.93
2022-12-11T22:56:21.356Z,9.77
2022-12-11T23:01:22.046Z,10.02
2022-12-11T23:06:22.051Z,10.55
2022-12-11T23:11:20.618Z,10.10
2022-12-11T23:16:17.160Z,10.38
2022-12-11T23:21:14.342Z,11.35
2022-12-11T23:26:13.017Z,10.43
2022-12-11T23:31:09.598Z,11.82
2022-12-11T23:36:06.741Z,11.32
2022-12-11T23:41:05.293Z,11.05
2022-12-11T23:46:02.860Z,11.75
2022-12-11T23:51:00.883Z,12.13
2022-12-11T23:56:03.360Z,12.27
